YAB weather

Arctic Bay Airport
Arctic Bay, Nunavut, Canada

Public forecast

Using degrees Celsius for public forecast. Weather courtesy of forecast.io.

METAR (pilot weather report)

Retrieved 2019/04/18 21:00 UTC (56 minutes ago):

CYAB 182100Z 30004KT 20SM FEW004 FEW016 FEW080 BKN210 M24/M29 A2990 RMK SC1SC1AC1CI6 SC TR AC TR VIS SW W 10 -SN CIG ESTD SLP130

TAF (pilot weather forecast)

Retrieved 2019/04/18 19:00 UTC (3 hours ago):

TAF CYAB 181838Z 1819/1822 VRB03KT P6SM SCT220 RMK NXT FCST WILL BE ISSUED AT 191245Z